Terminal Aerodrome Forecast
Issued by NWS

Current Version | Previous Version | Text Only | Print | Product List | Glossary On
Versions: 1 2 3 4 5 6 7 8 9 10 11 12 13 14 15 16 17 18 19 20 21 22 23
000
FTUS43 KGRR 011740
TAFJXN
TAF
KJXN 011740Z 0118/0218 24012KT P6SM FEW018 BKN025 OVC050
     FM012000 25022G32KT 6SM -SHRA OVC025
     FM012300 28019G27KT 3SM -SN OVC009
     FM020200 28020G28KT 1 1/2SM -SN BLSN OVC009
     FM020500 29018G26KT 4SM -SN OVC014
     FM020800 29012KT P6SM OVC025=

USA.gov is the U.S. government's official web portal to all federal, state and local government web resources and services.